This is the latest recevied weather packets stored in our database for station/object KJ5EHN. If no packets are shown the sender has not sent any weather packets the latest 10 day(s).
| Time | Temp. | Humidity | Pressure | Rain* | Wind** | Luminosity | Snow |
|---|---|---|---|---|---|---|---|
| 1777820503 | 22.78° C | 49% | 1020.7 hPa | 0 mm | - | - | - |
| 1777820200 | 22.78° C | 50% | 1020.8 hPa | 0 mm | - | - | - |
| 1777819897 | 22.78° C | 49% | 1020.6 hPa | 0 mm | - | - | - |
| 1777819594 | 22.22° C | 51% | 1020.7 hPa | 0 mm | - | - | - |
| 1777819292 | 22.22° C | 51% | 1020.7 hPa | 0 mm | - | - | - |
| 1777818988 | 21.67° C | 52% | 1020.6 hPa | 0 mm | - | - | - |
| 1777818686 | 21.67° C | 54% | 1020.7 hPa | 0 mm | - | - | - |
| 1777818382 | 21.67° C | 53% | 1020.7 hPa | 0 mm | - | - | - |
| 1777818079 | 20.56° C | 57% | 1020.6 hPa | 0 mm | - | - | - |
| 1777817775 | 20.56° C | 58% | 1020.7 hPa | 0 mm | - | - | - |
| 1777817474 | 20.56° C | 58% | 1020.9 hPa | 0 mm | - | - | - |
| 1777817169 | 20.56° C | 58% | 1020.7 hPa | 0 mm | - | - | - |
| 1777816867 | 20° C | 59% | 1020.6 hPa | 0 mm | - | - | - |
| 1777816564 | 19.44° C | 60% | 1020.6 hPa | 0 mm | - | - | - |
| 1777816261 | 19.44° C | 61% | 1020.7 hPa | 0 mm | - | - | - |
| 1777815958 | 19.44° C | 59% | 1020.9 hPa | 0 mm | - | - | - |
| 1777815655 | 18.89° C | 62% | 1020.8 hPa | 0 mm | - | - | - |
| 1777815353 | 18.89° C | 61% | 1020.7 hPa | 0 mm | - | - | - |
| 1777815049 | 18.89° C | 61% | 1020.6 hPa | 0 mm | - | - | - |
| 1777814745 | 18.33° C | 63% | 1020.5 hPa | 0 mm | - | - | - |
| 1777814443 | 17.78° C | 65% | 1020.5 hPa | 0 mm | - | - | - |
| 1777814140 | 17.78° C | 64% | 1020.4 hPa | 0 mm | - | - | - |
| 1777813837 | 17.22° C | 64% | 1020.6 hPa | 0 mm | - | - | - |
| 1777813534 | 16.67° C | 64% | 1020.4 hPa | 0 mm | - | - | - |
| 1777813232 | 16.67° C | 66% | 1020.7 hPa | 0 mm | - | - | - |
* Rain latest hour (hover to see other rain measurements)
** Current wind speed in m/s (hover to see current wind gust speed)